KSUA

Witham Field Airport

Stuart, Florida, USA
METAR KSUA 280050Z 15006KT 2SM +VCTSRA BKN008 BKN017 OVC023 25/24 A2986
Observed Flight Rules
May-28 @ 00:50 UTC (30 minutes ago) Instrument Flight Rules
Wind Visibility Clouds Conditions
150° at 6 knots 2 miles
  • Broken at 800' AGL
  • Broken at 1,700' AGL
  • Overcast at 2,300' AGL
  • Area Thunderstorm
  • Heavy Rain
Temperatures Readings
Current 25°C / 77°F
Dewpoint 24°C / 75°F
Humidity 94%
Altimeter 29.86" Hg
Pressure 1011 hPa
Elevation 6
METAR KSUA 280050Z 15006KT 2SM +VCTSRA BKN008 BKN017 OVC023 25/24 A2986
Observed Flight Rules
May-28 @ 00:50 UTC
(30 minutes ago)
IFR
Wind Visibility
150° at 6 knots 2 miles
Clouds
  • Broken at 800' AGL
  • Broken at 1,700' AGL
  • Overcast at 2,300' AGL
Conditions
  • Area Thunderstorm
  • Heavy Rain
Temperature Dewpoint
25°C / 77°F 24°C / 75°F
Humidity Altimeter Pressure
94% 29.86" Hg 1011 hPa